sensor_id;sensor_type;location;lat;lon;timestamp;pressure;altitude;pressure_sealevel;temperature;humidity
40245;BME280;25963;42.694;23.600;2022-12-29T00:01:16;96171.31;;;2.32;100.00
40245;BME280;25963;42.694;23.600;2022-12-29T00:03:41;96177.44;;;2.40;100.00
40245;BME280;25963;42.694;23.600;2022-12-29T00:06:07;96177.13;;;2.53;100.00
40245;BME280;25963;42.694;23.600;2022-12-29T00:08:32;96180.66;;;2.62;100.00
40245;BME280;25963;42.694;23.600;2022-12-29T00:11:07;96175.31;;;2.63;100.00
40245;BME280;25963;42.694;23.600;2022-12-29T00:13:33;96179.03;;;2.51;100.00
40245;BME280;25963;42.694;23.600;2022-12-29T00:16:17;96181.34;;;2.54;100.00
40245;BME280;25963;42.694;23.600;2022-12-29T00:18:42;96181.34;;;2.54;100.00
40245;BME280;25963;42.694;23.600;2022-12-29T00:21:16;96181.28;;;2.46;100.00
40245;BME280;25963;42.694;23.600;2022-12-29T00:24:00;96179.59;;;2.55;100.00
40245;BME280;25963;42.694;23.600;2022-12-29T00:26:45;96197.16;;;2.53;100.00
40245;BME280;25963;42.694;23.600;2022-12-29T00:29:30;96194.13;;;2.47;100.00
40245;BME280;25963;42.694;23.600;2022-12-29T00:32:14;96190.88;;;2.45;100.00
40245;BME280;25963;42.694;23.600;2022-12-29T00:34:58;96188.47;;;2.62;100.00
40245;BME280;25963;42.694;23.600;2022-12-29T00:37:41;96192.72;;;2.63;100.00
40245;BME280;25963;42.694;23.600;2022-12-29T00:40:26;96189.03;;;2.56;100.00
40245;BME280;25963;42.694;23.600;2022-12-29T00:43:10;96178.09;;;2.52;100.00
40245;BME280;25963;42.694;23.600;2022-12-29T00:45:54;96188.94;;;2.47;100.00
40245;BME280;25963;42.694;23.600;2022-12-29T00:48:19;96194.13;;;2.47;100.00
40245;BME280;25963;42.694;23.600;2022-12-29T00:51:05;96184.56;;;2.38;100.00
40245;BME280;25963;42.694;23.600;2022-12-29T00:53:31;96187.91;;;2.31;100.00
40245;BME280;25963;42.694;23.600;2022-12-29T00:55:57;96187.50;;;2.25;100.00
40245;BME280;25963;42.694;23.600;2022-12-29T00:58:22;96190.94;;;2.16;100.00
40245;BME280;25963;42.694;23.600;2022-12-29T01:00:47;96187.66;;;2.04;100.00
40245;BME280;25963;42.694;23.600;2022-12-29T01:03:13;96180.25;;;2.00;100.00
40245;BME280;25963;42.694;23.600;2022-12-29T01:05:38;96185.75;;;2.07;100.00
40245;BME280;25963;42.694;23.600;2022-12-29T01:08:04;96189.16;;;2.07;100.00
40245;BME280;25963;42.694;23.600;2022-12-29T01:10:29;96189.72;;;2.01;100.00
40245;BME280;25963;42.694;23.600;2022-12-29T01:12:55;96189.16;;;2.07;100.00
40245;BME280;25963;42.694;23.600;2022-12-29T01:15:20;96181.50;;;1.96;100.00
40245;BME280;25963;42.694;23.600;2022-12-29T01:17:46;96189.19;;;1.88;100.00
40245;BME280;25963;42.694;23.600;2022-12-29T01:20:12;96190.16;;;1.87;100.00
40245;BME280;25963;42.694;23.600;2022-12-29T01:22:38;96174.53;;;1.87;100.00
40245;BME280;25963;42.694;23.600;2022-12-29T01:25:04;96173.72;;;1.86;100.00
40245;BME280;25963;42.694;23.600;2022-12-29T01:27:30;96181.66;;;1.85;100.00
40245;BME280;25963;42.694;23.600;2022-12-29T01:29:56;96177.81;;;1.79;100.00
40245;BME280;25963;42.694;23.600;2022-12-29T01:32:22;96181.00;;;1.82;100.00
40245;BME280;25963;42.694;23.600;2022-12-29T01:34:47;96169.47;;;1.75;100.00
40245;BME280;25963;42.694;23.600;2022-12-29T01:37:12;96171.41;;;1.83;100.00
40245;BME280;25963;42.694;23.600;2022-12-29T01:39:38;96165.09;;;1.86;100.00
40245;BME280;25963;42.694;23.600;2022-12-29T01:42:03;96159.47;;;1.80;100.00
40245;BME280;25963;42.694;23.600;2022-12-29T01:45:02;96144.16;;;1.77;100.00
40245;BME280;25963;42.694;23.600;2022-12-29T01:47:36;96150.97;;;1.78;100.00
40245;BME280;25963;42.694;23.600;2022-12-29T01:50:10;96155.50;;;1.86;100.00
40245;BME280;25963;42.694;23.600;2022-12-29T01:52:41;96157.00;;;1.89;100.00
40245;BME280;25963;42.694;23.600;2022-12-29T01:55:08;96155.34;;;1.88;100.00
40245;BME280;25963;42.694;23.600;2022-12-29T01:57:38;96152.91;;;1.86;100.00
40245;BME280;25963;42.694;23.600;2022-12-29T02:00:11;96150.72;;;1.81;100.00
40245;BME280;25963;42.694;23.600;2022-12-29T02:02:41;96149.63;;;1.84;100.00
40245;BME280;25963;42.694;23.600;2022-12-29T02:05:20;96142.47;;;1.76;100.00
40245;BME280;25963;42.694;23.600;2022-12-29T02:07:47;96150.44;;;1.75;100.00
40245;BME280;25963;42.694;23.600;2022-12-29T02:10:14;96132.34;;;1.73;100.00
40245;BME280;25963;42.694;23.600;2022-12-29T02:12:39;96139.09;;;1.56;100.00
40245;BME280;25963;42.694;23.600;2022-12-29T02:15:06;96140.88;;;1.46;100.00
40245;BME280;25963;42.694;23.600;2022-12-29T02:23:31;96136.50;;;1.56;100.00
40245;BME280;25963;42.694;23.600;2022-12-29T02:32:01;96140.19;;;1.44;100.00
40245;BME280;25963;42.694;23.600;2022-12-29T02:34:57;96133.34;;;1.33;100.00
40245;BME280;25963;42.694;23.600;2022-12-29T02:37:35;96148.41;;;1.40;100.00
40245;BME280;25963;42.694;23.600;2022-12-29T02:40:23;96147.31;;;1.52;100.00
40245;BME280;25963;42.694;23.600;2022-12-29T02:43:04;96150.72;;;1.52;100.00
40245;BME280;25963;42.694;23.600;2022-12-29T02:46:08;96151.56;;;1.53;100.00
40245;BME280;25963;42.694;23.600;2022-12-29T02:48:38;96143.47;;;1.36;100.00
40245;BME280;25963;42.694;23.600;2022-12-29T02:51:22;96147.56;;;1.29;100.00
40245;BME280;25963;42.694;23.600;2022-12-29T02:53:50;96148.41;;;1.40;100.00
40245;BME280;25963;42.694;23.600;2022-12-29T02:56:34;96139.22;;;1.45;100.00
40245;BME280;25963;42.694;23.600;2022-12-29T02:59:00;96141.69;;;1.37;100.00
40245;BME280;25963;42.694;23.600;2022-12-29T03:01:49;96138.69;;;1.42;100.00
40245;BME280;25963;42.694;23.600;2022-12-29T03:04:50;96130.19;;;1.40;100.00
40245;BME280;25963;42.694;23.600;2022-12-29T03:07:29;96133.47;;;1.51;100.00
40245;BME280;25963;42.694;23.600;2022-12-29T03:10:30;96128.53;;;1.58;100.00
40245;BME280;25963;42.694;23.600;2022-12-29T03:13:26;96135.78;;;1.64;100.00
40245;BME280;25963;42.694;23.600;2022-12-29T03:16:58;96131.00;;;1.69;100.00
40245;BME280;25963;42.694;23.600;2022-12-29T03:19:23;96129.34;;;1.78;100.00
40245;BME280;25963;42.694;23.600;2022-12-29T03:22:07;96137.16;;;1.78;100.00
40245;BME280;25963;42.694;23.600;2022-12-29T03:25:16;96135.63;;;1.85;100.00
40245;BME280;25963;42.694;23.600;2022-12-29T03:27:56;96129.19;;;1.79;100.00
40245;BME280;25963;42.694;23.600;2022-12-29T03:30:22;96132.91;;;1.87;100.00
40245;BME280;25963;42.694;23.600;2022-12-29T03:32:54;96124.94;;;1.98;100.00
40245;BME280;25963;42.694;23.600;2022-12-29T03:35:25;96121.09;;;2.02;100.00
40245;BME280;25963;42.694;23.600;2022-12-29T03:37:58;96123.81;;;2.00;100.00
40245;BME280;25963;42.694;23.600;2022-12-29T03:40:26;96130.81;;;2.10;100.00
40245;BME280;25963;42.694;23.600;2022-12-29T03:42:53;96135.88;;;2.11;100.00
40245;BME280;25963;42.694;23.600;2022-12-29T03:45:19;96129.81;;;2.20;100.00
40245;BME280;25963;42.694;23.600;2022-12-29T03:47:45;96131.34;;;2.13;100.00
40245;BME280;25963;42.694;23.600;2022-12-29T03:50:12;96118.88;;;2.17;100.00
40245;BME280;25963;42.694;23.600;2022-12-29T03:52:37;96116.00;;;2.10;100.00
40245;BME280;25963;42.694;23.600;2022-12-29T03:55:03;96106.97;;;2.04;100.00
40245;BME280;25963;42.694;23.600;2022-12-29T03:57:29;96126.25;;;2.12;100.00
40245;BME280;25963;42.694;23.600;2022-12-29T03:59:54;96131.22;;;2.05;100.00
40245;BME280;25963;42.694;23.600;2022-12-29T04:02:20;96124.09;;;2.07;100.00
40245;BME280;25963;42.694;23.600;2022-12-29T04:04:45;96115.16;;;2.19;100.00
40245;BME280;25963;42.694;23.600;2022-12-29T04:07:10;96112.31;;;2.13;100.00
40245;BME280;25963;42.694;23.600;2022-12-29T04:09:36;96110.66;;;2.12;100.00
40245;BME280;25963;42.694;23.600;2022-12-29T04:12:01;96105.88;;;2.07;100.00
40245;BME280;25963;42.694;23.600;2022-12-29T04:14:27;96120.31;;;1.92;100.00
40245;BME280;25963;42.694;23.600;2022-12-29T04:16:52;96126.84;;;1.96;100.00
40245;BME280;25963;42.694;23.600;2022-12-29T04:19:18;96124.94;;;1.88;100.00
40245;BME280;25963;42.694;23.600;2022-12-29T04:21:43;96125.53;;;1.72;100.00
40245;BME280;25963;42.694;23.600;2022-12-29T04:24:08;96134.28;;;1.81;100.00
40245;BME280;25963;42.694;23.600;2022-12-29T04:26:34;96134.03;;;1.74;100.00
40245;BME280;25963;42.694;23.600;2022-12-29T04:28:59;96134.41;;;1.70;100.00
40245;BME280;25963;42.694;23.600;2022-12-29T04:31:25;96134.84;;;1.55;100.00
40245;BME280;25963;42.694;23.600;2022-12-29T04:33:50;96131.84;;;1.60;100.00
40245;BME280;25963;42.694;23.600;2022-12-29T04:36:15;96138.69;;;1.51;100.00
40245;BME280;25963;42.694;23.600;2022-12-29T04:38:41;96140.03;;;1.46;100.00
40245;BME280;25963;42.694;23.600;2022-12-29T04:41:06;96144.00;;;1.30;100.00
40245;BME280;25963;42.694;23.600;2022-12-29T04:43:32;96150.44;;;1.26;100.00
40245;BME280;25963;42.694;23.600;2022-12-29T04:45:57;96146.59;;;1.30;100.00
40245;BME280;25963;42.694;23.600;2022-12-29T04:48:23;96155.59;;;1.07;100.00
40245;BME280;25963;42.694;23.600;2022-12-29T04:50:48;96153.44;;;1.12;100.00
40245;BME280;25963;42.694;23.600;2022-12-29T04:53:15;96163.13;;;1.10;100.00
40245;BME280;25963;42.694;23.600;2022-12-29T04:55:41;96162.72;;;1.05;100.00
40245;BME280;25963;42.694;23.600;2022-12-29T04:58:06;96161.34;;;1.01;100.00
40245;BME280;25963;42.694;23.600;2022-12-29T05:00:32;96157.94;;;1.00;100.00
40245;BME280;25963;42.694;23.600;2022-12-29T05:02:57;96163.09;;;0.90;100.00
40245;BME280;25963;42.694;23.600;2022-12-29T05:05:23;96163.78;;;0.93;100.00
40245;BME280;25963;42.694;23.600;2022-12-29T05:07:48;96168.44;;;0.99;100.00
40245;BME280;25963;42.694;23.600;2022-12-29T05:10:14;96165.16;;;0.97;100.00
40245;BME280;25963;42.694;23.600;2022-12-29T05:12:39;96164.91;;;1.00;100.00
40245;BME280;25963;42.694;23.600;2022-12-29T05:15:06;96157.09;;;0.90;100.00
40245;BME280;25963;42.694;23.600;2022-12-29T05:20:40;96165.69;;;0.90;100.00
40245;BME280;25963;42.694;23.600;2022-12-29T05:23:06;96168.56;;;0.87;100.00
40245;BME280;25963;42.694;23.600;2022-12-29T05:25:31;96175.00;;;0.93;100.00
40245;BME280;25963;42.694;23.600;2022-12-29T05:27:57;96162.56;;;0.87;100.00
40245;BME280;25963;42.694;23.600;2022-12-29T05:30:22;96164.19;;;0.88;100.00
40245;BME280;25963;42.694;23.600;2022-12-29T05:32:47;96162.41;;;0.98;100.00
40245;BME280;25963;42.694;23.600;2022-12-29T05:35:13;96166.28;;;1.04;100.00
40245;BME280;25963;42.694;23.600;2022-12-29T05:37:38;96163.38;;;0.97;100.00
40245;BME280;25963;42.694;23.600;2022-12-29T05:40:04;96162.03;;;1.03;100.00
40245;BME280;25963;42.694;23.600;2022-12-29T05:42:30;96167.66;;;1.08;100.00
40245;BME280;25963;42.694;23.600;2022-12-29T05:44:55;96174.66;;;1.17;100.00
40245;BME280;25963;42.694;23.600;2022-12-29T05:47:20;96175.09;;;1.32;100.00
40245;BME280;25963;42.694;23.600;2022-12-29T05:49:46;96176.28;;;1.37;100.00
40245;BME280;25963;42.694;23.600;2022-12-29T05:52:42;96175.09;;;1.42;100.00
40245;BME280;25963;42.694;23.600;2022-12-29T05:55:08;96170.44;;;1.45;100.00
40245;BME280;25963;42.694;23.600;2022-12-29T05:57:34;96174.13;;;1.43;100.00
40245;BME280;25963;42.694;23.600;2022-12-29T05:59:59;96178.38;;;1.44;100.00
40245;BME280;25963;42.694;23.600;2022-12-29T06:02:25;96179.91;;;1.56;100.00
40245;BME280;25963;42.694;23.600;2022-12-29T06:04:50;96179.47;;;1.60;100.00
40245;BME280;25963;42.694;23.600;2022-12-29T06:07:16;96172.91;;;1.66;100.00
40245;BME280;25963;42.694;23.600;2022-12-29T06:09:41;96177.13;;;1.67;100.00
40245;BME280;25963;42.694;23.600;2022-12-29T06:12:06;96178.91;;;1.76;100.00
40245;BME280;25963;42.694;23.600;2022-12-29T06:14:32;96176.19;;;1.78;100.00
40245;BME280;25963;42.694;23.600;2022-12-29T06:16:57;96186.28;;;1.91;100.00
40245;BME280;25963;42.694;23.600;2022-12-29T06:19:23;96178.91;;;1.96;100.00
40245;BME280;25963;42.694;23.600;2022-12-29T06:21:48;96181.94;;;2.01;100.00
40245;BME280;25963;42.694;23.600;2022-12-29T06:24:14;96177.78;;;2.08;100.00
40245;BME280;25963;42.694;23.600;2022-12-29T06:26:39;96180.94;;;2.12;100.00
40245;BME280;25963;42.694;23.600;2022-12-29T06:29:06;96178.28;;;2.21;100.00
40245;BME280;25963;42.694;23.600;2022-12-29T06:31:33;96181.75;;;2.22;100.00
40245;BME280;25963;42.694;23.600;2022-12-29T06:33:58;96186.63;;;2.35;100.00
40245;BME280;25963;42.694;23.600;2022-12-29T06:36:24;96182.50;;;2.42;100.00
40245;BME280;25963;42.694;23.600;2022-12-29T06:38:49;96184.09;;;2.62;100.00
40245;BME280;25963;42.694;23.600;2022-12-29T06:41:18;96184.84;;;2.82;100.00
40245;BME280;25963;42.694;23.600;2022-12-29T06:43:43;96183.72;;;2.85;100.00
40245;BME280;25963;42.694;23.600;2022-12-29T06:46:08;96177.00;;;2.82;100.00
40245;BME280;25963;42.694;23.600;2022-12-29T06:48:34;96187.03;;;3.05;100.00
40245;BME280;25963;42.694;23.600;2022-12-29T06:50:59;96191.44;;;3.04;100.00
40245;BME280;25963;42.694;23.600;2022-12-29T06:53:25;96185.31;;;3.23;100.00
40245;BME280;25963;42.694;23.600;2022-12-29T06:55:50;96197.41;;;3.42;100.00
40245;BME280;25963;42.694;23.600;2022-12-29T06:58:16;96193.69;;;3.45;100.00
40245;BME280;25963;42.694;23.600;2022-12-29T07:00:41;96199.03;;;3.43;100.00
40245;BME280;25963;42.694;23.600;2022-12-29T07:03:06;96201.22;;;3.48;100.00
40245;BME280;25963;42.694;23.600;2022-12-29T07:05:32;96179.34;;;3.31;100.00
40245;BME280;25963;42.694;23.600;2022-12-29T07:07:58;96190.47;;;3.33;100.00
40245;BME280;25963;42.694;23.600;2022-12-29T07:10:24;96196.28;;;3.27;100.00
40245;BME280;25963;42.694;23.600;2022-12-29T07:12:50;96195.91;;;3.39;100.00
40245;BME280;25963;42.694;23.600;2022-12-29T07:15:15;96198.16;;;3.52;100.00
40245;BME280;25963;42.694;23.600;2022-12-29T07:17:41;96192.19;;;3.42;100.00
40245;BME280;25963;42.694;23.600;2022-12-29T07:20:07;96204.63;;;3.48;100.00
40245;BME280;25963;42.694;23.600;2022-12-29T07:22:32;96196.06;;;3.56;100.00
40245;BME280;25963;42.694;23.600;2022-12-29T07:24:58;96193.53;;;3.46;100.00
40245;BME280;25963;42.694;23.600;2022-12-29T07:27:23;96186.28;;;3.40;100.00
40245;BME280;25963;42.694;23.600;2022-12-29T07:29:48;96206.63;;;3.36;100.00
40245;BME280;25963;42.694;23.600;2022-12-29T07:32:14;96207.31;;;3.38;100.00
40245;BME280;25963;42.694;23.600;2022-12-29T07:34:40;96203.94;;;3.46;100.00
40245;BME280;25963;42.694;23.600;2022-12-29T07:37:05;96205.25;;;3.60;100.00
40245;BME280;25963;42.694;23.600;2022-12-29T07:39:31;96197.09;;;3.45;100.00
40245;BME280;25963;42.694;23.600;2022-12-29T07:41:56;96209.78;;;3.58;100.00
40245;BME280;25963;42.694;23.600;2022-12-29T07:44:22;96208.25;;;3.65;100.00
40245;BME280;25963;42.694;23.600;2022-12-29T07:46:47;96208.59;;;3.70;100.00
40245;BME280;25963;42.694;23.600;2022-12-29T07:49:12;96195.72;;;3.69;100.00
40245;BME280;25963;42.694;23.600;2022-12-29T07:51:38;96200.25;;;3.66;100.00
40245;BME280;25963;42.694;23.600;2022-12-29T07:54:03;96203.59;;;3.77;100.00
40245;BME280;25963;42.694;23.600;2022-12-29T07:56:29;96201.28;;;3.92;100.00
40245;BME280;25963;42.694;23.600;2022-12-29T07:58:54;96199.50;;;3.92;100.00
40245;BME280;25963;42.694;23.600;2022-12-29T08:01:20;96191.03;;;4.16;100.00
40245;BME280;25963;42.694;23.600;2022-12-29T08:03:46;96193.88;;;4.23;100.00
40245;BME280;25963;42.694;23.600;2022-12-29T08:06:11;96199.50;;;4.10;100.00
40245;BME280;25963;42.694;23.600;2022-12-29T08:08:37;96196.09;;;4.18;100.00
40245;BME280;25963;42.694;23.600;2022-12-29T08:11:03;96204.41;;;4.39;100.00
40245;BME280;25963;42.694;23.600;2022-12-29T08:13:29;96201.16;;;4.37;100.00
40245;BME280;25963;42.694;23.600;2022-12-29T08:15:54;96206.47;;;4.53;100.00
40245;BME280;25963;42.694;23.600;2022-12-29T08:18:20;96191.13;;;4.85;100.00
40245;BME280;25963;42.694;23.600;2022-12-29T08:20:45;96201.41;;;4.86;100.00
40245;BME280;25963;42.694;23.600;2022-12-29T08:23:11;96200.97;;;4.91;100.00
40245;BME280;25963;42.694;23.600;2022-12-29T08:25:36;96201.03;;;5.07;100.00
40245;BME280;25963;42.694;23.600;2022-12-29T08:28:02;96199.19;;;4.99;100.00
40245;BME280;25963;42.694;23.600;2022-12-29T08:30:27;96193.25;;;5.23;100.00
40245;BME280;25963;42.694;23.600;2022-12-29T08:32:52;96201.88;;;5.16;100.00
40245;BME280;25963;42.694;23.600;2022-12-29T08:35:18;96201.59;;;5.35;100.00
40245;BME280;25963;42.694;23.600;2022-12-29T08:37:44;96195.59;;;5.59;100.00
40245;BME280;25963;42.694;23.600;2022-12-29T08:40:10;96210.84;;;5.64;100.00
40245;BME280;25963;42.694;23.600;2022-12-29T08:42:35;96202.31;;;5.62;100.00
40245;BME280;25963;42.694;23.600;2022-12-29T08:45:01;96201.59;;;5.35;100.00
40245;BME280;25963;42.694;23.600;2022-12-29T08:47:27;96197.91;;;5.62;100.00
40245;BME280;25963;42.694;23.600;2022-12-29T08:49:52;96183.59;;;5.99;100.00
40245;BME280;25963;42.694;23.600;2022-12-29T08:52:18;96195.19;;;5.97;100.00
40245;BME280;25963;42.694;23.600;2022-12-29T08:54:43;96180.47;;;6.20;100.00
40245;BME280;25963;42.694;23.600;2022-12-29T08:57:09;96181.09;;;6.22;100.00
40245;BME280;25963;42.694;23.600;2022-12-29T08:59:34;96174.22;;;6.13;100.00
40245;BME280;25963;42.694;23.600;2022-12-29T09:02:00;96179.50;;;6.05;100.00
40245;BME280;25963;42.694;23.600;2022-12-29T09:04:26;96170.97;;;6.03;100.00
40245;BME280;25963;42.694;23.600;2022-12-29T09:06:52;96164.75;;;6.12;100.00
40245;BME280;25963;42.694;23.600;2022-12-29T09:09:18;96170.31;;;6.09;100.00
40245;BME280;25963;42.694;23.600;2022-12-29T09:11:44;96169.47;;;6.49;100.00
40245;BME280;25963;42.694;23.600;2022-12-29T09:14:09;96169.28;;;6.43;100.00
40245;BME280;25963;42.694;23.600;2022-12-29T09:16:35;96165.19;;;6.56;100.00
40245;BME280;25963;42.694;23.600;2022-12-29T09:19:01;96168.63;;;6.49;100.00
40245;BME280;25963;42.694;23.600;2022-12-29T09:21:27;96150.38;;;6.80;100.00
40245;BME280;25963;42.694;23.600;2022-12-29T09:23:52;96157.22;;;7.20;100.00
40245;BME280;25963;42.694;23.600;2022-12-29T09:26:18;96159.69;;;7.22;100.00
40245;BME280;25963;42.694;23.600;2022-12-29T09:28:43;96154.88;;;7.34;100.00
40245;BME280;25963;42.694;23.600;2022-12-29T09:31:10;96151.72;;;7.38;100.00
40245;BME280;25963;42.694;23.600;2022-12-29T09:33:35;96158.50;;;7.55;100.00
40245;BME280;25963;42.694;23.600;2022-12-29T09:36:01;96148.06;;;7.70;100.00
40245;BME280;25963;42.694;23.600;2022-12-29T09:38:28;96149.94;;;7.85;100.00
40245;BME280;25963;42.694;23.600;2022-12-29T09:40:57;96141.34;;;7.91;100.00
40245;BME280;25963;42.694;23.600;2022-12-29T09:46:26;96141.09;;;8.23;100.00
40245;BME280;25963;42.694;23.600;2022-12-29T09:51:55;96134.88;;;8.39;100.00
40245;BME280;25963;42.694;23.600;2022-12-29T09:56:53;96118.09;;;8.40;100.00
40245;BME280;25963;42.694;23.600;2022-12-29T09:59:24;96123.56;;;8.39;100.00
40245;BME280;25963;42.694;23.600;2022-12-29T10:04:21;96116.31;;;8.71;100.00
40245;BME280;25963;42.694;23.600;2022-12-29T10:06:57;96121.66;;;8.77;100.00
40245;BME280;25963;42.694;23.600;2022-12-29T10:20:55;96100.53;;;8.71;100.00
40245;BME280;25963;42.694;23.600;2022-12-29T10:25:54;96091.72;;;9.14;100.00
40245;BME280;25963;42.694;23.600;2022-12-29T10:28:24;96101.47;;;9.35;100.00
40245;BME280;25963;42.694;23.600;2022-12-29T10:30:57;96102.88;;;9.53;100.00
40245;BME280;25963;42.694;23.600;2022-12-29T10:33:34;96099.56;;;9.66;100.00
40245;BME280;25963;42.694;23.600;2022-12-29T10:36:57;96089.28;;;9.71;100.00
40245;BME280;25963;42.694;23.600;2022-12-29T10:41:38;96079.84;;;9.83;100.00
40245;BME280;25963;42.694;23.600;2022-12-29T10:44:09;96081.13;;;9.66;100.00
40245;BME280;25963;42.694;23.600;2022-12-29T10:46:37;96075.72;;;9.74;100.00
40245;BME280;25963;42.694;23.600;2022-12-29T10:49:04;96079.13;;;9.46;100.00
40245;BME280;25963;42.694;23.600;2022-12-29T10:51:36;96076.31;;;9.69;100.00
40245;BME280;25963;42.694;23.600;2022-12-29T10:54:12;96072.31;;;9.80;100.00
40245;BME280;25963;42.694;23.600;2022-12-29T10:56:50;96079.72;;;9.91;100.00
40245;BME280;25963;42.694;23.600;2022-12-29T10:59:26;96075.13;;;10.00;100.00
40245;BME280;25963;42.694;23.600;2022-12-29T11:02:22;96058.22;;;10.16;100.00
40245;BME280;25963;42.694;23.600;2022-12-29T11:05:06;96055.69;;;10.29;100.00
40245;BME280;25963;42.694;23.600;2022-12-29T11:07:35;96058.94;;;10.31;100.00
40245;BME280;25963;42.694;23.600;2022-12-29T11:13:18;96050.94;;;10.18;100.00
40245;BME280;25963;42.694;23.600;2022-12-29T11:15:49;96041.34;;;10.10;100.00
40245;BME280;25963;42.694;23.600;2022-12-29T11:18:36;96038.72;;;10.17;100.00
40245;BME280;25963;42.694;23.600;2022-12-29T11:21:23;96047.28;;;10.19;100.00
40245;BME280;25963;42.694;23.600;2022-12-29T11:24:01;96038.59;;;10.25;100.00
40245;BME280;25963;42.694;23.600;2022-12-29T11:26:29;96029.38;;;10.36;100.00
40245;BME280;25963;42.694;23.600;2022-12-29T11:31:46;96024.13;;;10.42;100.00
40245;BME280;25963;42.694;23.600;2022-12-29T11:36:46;96027.00;;;10.47;100.00
40245;BME280;25963;42.694;23.600;2022-12-29T11:39:32;96025.13;;;10.41;100.00
40245;BME280;25963;42.694;23.600;2022-12-29T11:42:00;96022.13;;;10.44;100.00
40245;BME280;25963;42.694;23.600;2022-12-29T11:44:31;96013.34;;;10.37;100.00
40245;BME280;25963;42.694;23.600;2022-12-29T11:46:59;96021.75;;;10.54;100.00
40245;BME280;25963;42.694;23.600;2022-12-29T11:49:26;96014.88;;;10.60;100.00
40245;BME280;25963;42.694;23.600;2022-12-29T11:51:53;96020.59;;;10.70;100.00
40245;BME280;25963;42.694;23.600;2022-12-29T11:54:34;96010.94;;;10.90;100.00
40245;BME280;25963;42.694;23.600;2022-12-29T11:57:14;96015.22;;;10.98;100.00
40245;BME280;25963;42.694;23.600;2022-12-29T11:59:51;96004.03;;;10.89;100.00
40245;BME280;25963;42.694;23.600;2022-12-29T12:02:26;96011.72;;;10.91;100.00
40245;BME280;25963;42.694;23.600;2022-12-29T12:05:15;96000.59;;;11.02;100.00
40245;BME280;25963;42.694;23.600;2022-12-29T12:08:11;96007.53;;;11.10;100.00
40245;BME280;25963;42.694;23.600;2022-12-29T12:10:40;96011.63;;;11.32;100.00
40245;BME280;25963;42.694;23.600;2022-12-29T12:13:29;95998.03;;;11.35;100.00
40245;BME280;25963;42.694;23.600;2022-12-29T12:21:27;95992.78;;;11.49;100.00
40245;BME280;25963;42.694;23.600;2022-12-29T12:24:07;95990.31;;;11.54;100.00
40245;BME280;25963;42.694;23.600;2022-12-29T12:32:17;95979.75;;;11.47;100.00
40245;BME280;25963;42.694;23.600;2022-12-29T12:34:46;95986.88;;;11.47;100.00
40245;BME280;25963;42.694;23.600;2022-12-29T12:59:49;95983.44;;;11.86;99.10
40245;BME280;25963;42.694;23.600;2022-12-29T13:21:02;96000.06;;;11.60;97.04
40245;BME280;25963;42.694;23.600;2022-12-29T13:23:39;96000.06;;;11.66;97.50
40245;BME280;25963;42.694;23.600;2022-12-29T13:26:39;95990.13;;;11.55;99.72
40245;BME280;25963;42.694;23.600;2022-12-29T13:31:55;95989.47;;;11.33;97.77
40245;BME280;25963;42.694;23.600;2022-12-29T13:34:25;95989.47;;;11.33;97.94
40245;BME280;25963;42.694;23.600;2022-12-29T13:36:58;95970.19;;;11.19;97.95
40245;BME280;25963;42.694;23.600;2022-12-29T13:41:57;95983.16;;;11.14;98.07
40245;BME280;25963;42.694;23.600;2022-12-29T13:44:51;95986.19;;;11.05;98.60
40245;BME280;25963;42.694;23.600;2022-12-29T13:47:33;95997.34;;;11.07;98.76
40245;BME280;25963;42.694;23.600;2022-12-29T13:50:03;95991.25;;;11.00;99.45
40245;BME280;25963;42.694;23.600;2022-12-29T13:56:14;95989.00;;;10.83;100.00
40245;BME280;25963;42.694;23.600;2022-12-29T13:58:53;95992.19;;;10.72;100.00
40245;BME280;25963;42.694;23.600;2022-12-29T14:01:29;95994.56;;;10.60;100.00
40245;BME280;25963;42.694;23.600;2022-12-29T14:03:58;95990.47;;;10.51;100.00
40245;BME280;25963;42.694;23.600;2022-12-29T14:06:30;95982.88;;;10.35;100.00
40245;BME280;25963;42.694;23.600;2022-12-29T14:08:59;95984.22;;;10.24;100.00
40245;BME280;25963;42.694;23.600;2022-12-29T14:11:33;95986.22;;;10.15;100.00
40245;BME280;25963;42.694;23.600;2022-12-29T14:14:11;95989.97;;;9.99;100.00
40245;BME280;25963;42.694;23.600;2022-12-29T14:16:37;95990.69;;;9.87;100.00
40245;BME280;25963;42.694;23.600;2022-12-29T14:19:09;95992.03;;;9.76;100.00
40245;BME280;25963;42.694;23.600;2022-12-29T14:21:36;95991.94;;;9.63;100.00
40245;BME280;25963;42.694;23.600;2022-12-29T14:34:46;96016.63;;;9.33;100.00
40245;BME280;25963;42.694;23.600;2022-12-29T14:42:32;96011.16;;;9.13;100.00
40245;BME280;25963;42.694;23.600;2022-12-29T15:08:06;96015.72;;;8.09;100.00
40245;BME280;25963;42.694;23.600;2022-12-29T15:10:58;96014.47;;;8.05;100.00
40245;BME280;25963;42.694;23.600;2022-12-29T15:13:24;96013.09;;;7.94;100.00
40245;BME280;25963;42.694;23.600;2022-12-29T15:15:57;96008.75;;;7.87;100.00
40245;BME280;25963;42.694;23.600;2022-12-29T15:18:24;96012.59;;;7.76;100.00
40245;BME280;25963;42.694;23.600;2022-12-29T15:20:57;96018.84;;;7.60;100.00
40245;BME280;25963;42.694;23.600;2022-12-29T15:23:24;96020.59;;;7.45;100.00
40245;BME280;25963;42.694;23.600;2022-12-29T15:25:55;96022.84;;;7.33;100.00
40245;BME280;25963;42.694;23.600;2022-12-29T15:28:22;96013.56;;;7.22;100.00
40245;BME280;25963;42.694;23.600;2022-12-29T15:30:56;96030.16;;;7.15;100.00
40245;BME280;25963;42.694;23.600;2022-12-29T15:33:24;96028.13;;;7.02;100.00
40245;BME280;25963;42.694;23.600;2022-12-29T15:35:52;96027.06;;;6.88;100.00